Мари-Турек

Карта отелей и гостиниц, располагающихся рядом с аэропортом Мари-Турек :

Мари-Турек Марий Эл 56° 46' 32.6388" N, 49° 36' 50.8212" E
Код аэродрома ИКАО
ZEQ0
Код аэродрома RU
ЗЕЯ0
Координаты
N56.77573° E049.61412°
Превышение над уровнем моря
146
Основная полоса
09/27
Курс магнитный
090,3/270,3
Длина основной ВПП
435
Ширина основной ВПП
18
Покрытие основной ВПП
Твёрдое (асфальт)
Освещение ВПП
Нет
Тип: 
Аэродром
Класс аэродрома: 
Принадлежность: 
ГА
Статус: 
Недействующий
Сайт: 
E-mail аэродрома: 
Страна: 
Россия
Регион: 
Марий Эл
Город: 
Дополнительная информация: 
Бывшая площадка АХР.

Найти трансфер

С помощью этой формы Вы можете найти трансфер из аэропорта Мари-Турек в город, аэропорт или вокзал:

Карта места

Javascript is required to view this map.

Погода в аэропортах:

Авиационная погода в Челябинске

Регион: 
Погода METAR: 
USCC 170530Z 21010MPS 9999 DRSN FEW040CB M09/M12 Q1001 R27/390033 NOSIG RMK QFE731
Время наблюдения
2021-01-17T05:30:00Z
Температура C
-9.0
Точка росы
-12.0
Направление ветра
210
Скорость ветра (узлы)
19
Метео видимость
6.21
Явления погоды
DRSN
Условия полета
VFR
Аэропорт подробнее: 

Авиационная погода в Краснодаре

Регион: 
Погода METAR: 
URKK 170530Z 03009MPS 0300 R05R/0350N +SHSN BKN003 OVC020CB M05/M06 Q1004 R05R/690335 NOSIG RMK QBB090 OBST OBSC QFE750
Время наблюдения
2021-01-17T05:30:00Z
Температура C
-5.0
Точка росы
-6.0
Направление ветра
30
Скорость ветра (узлы)
17
Метео видимость
0.19
Явления погоды
+SHSN
Условия полета
LIFR
Аэропорт подробнее: 

Авиационная погода в Нижневартовске

Регион: 
Погода METAR: 
USNN 170530Z 21005MPS 2800 -SN OVC016 M11/M13 Q0992 R21/39//33 NOSIG RMK QFE739
Время наблюдения
2021-01-17T05:30:00Z
Температура C
-11.0
Точка росы
-13.0
Направление ветра
210
Скорость ветра (узлы)
10
Метео видимость
1.74
Явления погоды
-SN
Условия полета
IFR
Аэропорт подробнее: 

Авиационная погода в Брянске

Регион: 
Погода METAR: 
UUBP 170530Z 28002MPS 4000 -SN BR BKN008 OVC014 M17/M20 Q1010 R34/490540 NOSIG RMK QFE740/0987
Время наблюдения
2021-01-17T05:30:00Z
Температура C
-17.0
Точка росы
-20.0
Направление ветра
280
Скорость ветра (узлы)
4
Метео видимость
2.49
Явления погоды
-SN BR
Условия полета
IFR
Аэропорт подробнее: